sensor_id;sensor_type;location;lat;lon;timestamp;pressure;altitude;pressure_sealevel;temperature;humidity
12759;BME280;20944;47.048;15.390;2024-03-02T00:00:50;96821.94;;;8.83;100.00
12759;BME280;20944;47.048;15.390;2024-03-02T00:03:19;96808.66;;;8.89;100.00
12759;BME280;20944;47.048;15.390;2024-03-02T00:05:52;96789.81;;;8.79;100.00
12759;BME280;20944;47.048;15.390;2024-03-02T00:08:23;96805.06;;;8.91;100.00
12759;BME280;20944;47.048;15.390;2024-03-02T00:10:57;96811.84;;;8.97;100.00
12759;BME280;20944;47.048;15.390;2024-03-02T00:13:26;96790.94;;;8.72;100.00
12759;BME280;20944;47.048;15.390;2024-03-02T00:15:56;96819.91;;;8.91;100.00
12759;BME280;20944;47.048;15.390;2024-03-02T00:18:26;96828.75;;;8.87;100.00
12759;BME280;20944;47.048;15.390;2024-03-02T00:20:57;96797.19;;;8.68;100.00
12759;BME280;20944;47.048;15.390;2024-03-02T00:23:28;96834.72;;;8.90;100.00
12759;BME280;20944;47.048;15.390;2024-03-02T00:25:58;96819.91;;;8.91;100.00
12759;BME280;20944;47.048;15.390;2024-03-02T00:28:29;96823.53;;;8.87;100.00
12759;BME280;20944;47.048;15.390;2024-03-02T00:31:05;96817.19;;;8.94;100.00
12759;BME280;20944;47.048;15.390;2024-03-02T00:33:35;96794.09;;;8.82;100.00
12759;BME280;20944;47.048;15.390;2024-03-02T00:36:07;96799.22;;;8.85;100.00
12759;BME280;20944;47.048;15.390;2024-03-02T00:38:44;96802.72;;;8.84;100.00
12759;BME280;20944;47.048;15.390;2024-03-02T00:41:17;96808.75;;;8.86;100.00
12759;BME280;20944;47.048;15.390;2024-03-02T00:43:57;96819.38;;;8.81;100.00
12759;BME280;20944;47.048;15.390;2024-03-02T00:46:27;96827.84;;;8.88;100.00
12759;BME280;20944;47.048;15.390;2024-03-02T00:48:57;96789.16;;;8.74;100.00
12759;BME280;20944;47.048;15.390;2024-03-02T00:51:28;96814.38;;;9.00;100.00
12759;BME280;20944;47.048;15.390;2024-03-02T00:53:59;96691.44;;;8.30;100.00
12759;BME280;20944;47.048;15.390;2024-03-02T00:56:28;96809.50;;;8.89;100.00
12759;BME280;20944;47.048;15.390;2024-03-02T00:58:56;96827.66;;;8.94;100.00
12759;BME280;20944;47.048;15.390;2024-03-02T01:01:24;96762.47;;;8.64;100.00
12759;BME280;20944;47.048;15.390;2024-03-02T01:03:53;96807.97;;;8.84;100.00
12759;BME280;20944;47.048;15.390;2024-03-02T01:06:22;96818.56;;;8.79;100.00
12759;BME280;20944;47.048;15.390;2024-03-02T01:08:51;96818.09;;;8.68;100.00
12759;BME280;20944;47.048;15.390;2024-03-02T01:11:20;96820.84;;;8.63;100.00
12759;BME280;20944;47.048;15.390;2024-03-02T01:13:50;96821.53;;;8.69;100.00
12759;BME280;20944;47.048;15.390;2024-03-02T01:16:19;96773.00;;;8.35;100.00
12759;BME280;20944;47.048;15.390;2024-03-02T01:18:47;96813.59;;;8.72;100.00
12759;BME280;20944;47.048;15.390;2024-03-02T01:21:16;96809.28;;;8.71;100.00
12759;BME280;20944;47.048;15.390;2024-03-02T01:23:44;96816.41;;;8.65;100.00
12759;BME280;20944;47.048;15.390;2024-03-02T01:26:14;96805.13;;;8.65;100.00
12759;BME280;20944;47.048;15.390;2024-03-02T01:28:43;96806.72;;;8.69;100.00
12759;BME280;20944;47.048;15.390;2024-03-02T01:31:12;96798.91;;;8.69;100.00
12759;BME280;20944;47.048;15.390;2024-03-02T01:33:40;96814.28;;;8.77;100.00
12759;BME280;20944;47.048;15.390;2024-03-02T01:36:08;96813.78;;;8.65;100.00
12759;BME280;20944;47.048;15.390;2024-03-02T01:38:36;96811.50;;;8.56;100.00
12759;BME280;20944;47.048;15.390;2024-03-02T01:41:05;96803.94;;;8.49;100.00
12759;BME280;20944;47.048;15.390;2024-03-02T01:43:34;96791.72;;;8.49;100.00
12759;BME280;20944;47.048;15.390;2024-03-02T01:46:06;96816.53;;;8.62;100.00
12759;BME280;20944;47.048;15.390;2024-03-02T01:48:34;96793.50;;;8.47;100.00
12759;BME280;20944;47.048;15.390;2024-03-02T01:51:03;96810.69;;;8.54;100.00
12759;BME280;20944;47.048;15.390;2024-03-02T01:53:33;96808.06;;;8.54;100.00
12759;BME280;20944;47.048;15.390;2024-03-02T01:56:02;96811.44;;;8.58;100.00
12759;BME280;20944;47.048;15.390;2024-03-02T01:58:30;96790.69;;;8.55;100.00
12759;BME280;20944;47.048;15.390;2024-03-02T02:01:00;96810.53;;;8.59;100.00
12759;BME280;20944;47.048;15.390;2024-03-02T02:03:28;96807.00;;;8.60;100.00
12759;BME280;20944;47.048;15.390;2024-03-02T02:05:57;96760.13;;;8.30;100.00
12759;BME280;20944;47.048;15.390;2024-03-02T02:08:25;96804.72;;;8.51;100.00
12759;BME280;20944;47.048;15.390;2024-03-02T02:10:54;96805.63;;;8.50;100.00
12759;BME280;20944;47.048;15.390;2024-03-02T02:13:22;96781.69;;;8.37;100.00
12759;BME280;20944;47.048;15.390;2024-03-02T02:15:51;96775.34;;;8.18;100.00
12759;BME280;20944;47.048;15.390;2024-03-02T02:18:21;96800.69;;;8.41;100.00
12759;BME280;20944;47.048;15.390;2024-03-02T02:20:50;96801.56;;;8.41;100.00
12759;BME280;20944;47.048;15.390;2024-03-02T02:23:19;96791.22;;;8.38;100.00
12759;BME280;20944;47.048;15.390;2024-03-02T02:25:47;96783.28;;;8.41;100.00
12759;BME280;20944;47.048;15.390;2024-03-02T02:28:16;96792.00;;;8.40;100.00
12759;BME280;20944;47.048;15.390;2024-03-02T02:30:44;96784.94;;;8.44;100.00
12759;BME280;20944;47.048;15.390;2024-03-02T02:33:12;96760.91;;;8.32;100.00
12759;BME280;20944;47.048;15.390;2024-03-02T02:35:41;96770.03;;;8.47;100.00
12759;BME280;20944;47.048;15.390;2024-03-02T02:38:09;96785.47;;;8.53;100.00
12759;BME280;20944;47.048;15.390;2024-03-02T02:40:39;96775.22;;;8.49;100.00
12759;BME280;20944;47.048;15.390;2024-03-02T02:43:06;96775.75;;;8.58;100.00
12759;BME280;20944;47.048;15.390;2024-03-02T02:45:34;96758.00;;;8.43;100.00
12759;BME280;20944;47.048;15.390;2024-03-02T02:48:03;96785.47;;;8.53;100.00
12759;BME280;20944;47.048;15.390;2024-03-02T02:50:32;96781.16;;;8.52;100.00
12759;BME280;20944;47.048;15.390;2024-03-02T02:53:00;96775.00;;;8.55;100.00
12759;BME280;20944;47.048;15.390;2024-03-02T02:55:28;96762.41;;;8.41;100.00
12759;BME280;20944;47.048;15.390;2024-03-02T02:57:58;96760.84;;;8.35;100.00
12759;BME280;20944;47.048;15.390;2024-03-02T03:00:26;96776.91;;;8.50;100.00
12759;BME280;20944;47.048;15.390;2024-03-02T03:02:54;96774.94;;;8.56;100.00
12759;BME280;20944;47.048;15.390;2024-03-02T03:05:23;96760.28;;;8.52;100.00
12759;BME280;20944;47.048;15.390;2024-03-02T03:07:51;96775.00;;;8.55;100.00
12759;BME280;20944;47.048;15.390;2024-03-02T03:10:20;96743.44;;;8.36;100.00
12759;BME280;20944;47.048;15.390;2024-03-02T03:12:50;96737.84;;;8.20;100.00
12759;BME280;20944;47.048;15.390;2024-03-02T03:15:20;96779.94;;;8.37;100.00
12759;BME280;20944;47.048;15.390;2024-03-02T03:17:48;96776.78;;;8.26;100.00
12759;BME280;20944;47.048;15.390;2024-03-02T03:20:17;96770.00;;;8.21;100.00
12759;BME280;20944;47.048;15.390;2024-03-02T03:22:48;96776.25;;;8.15;100.00
12759;BME280;20944;47.048;15.390;2024-03-02T03:25:16;96751.59;;;7.97;100.00
12759;BME280;20944;47.048;15.390;2024-03-02T03:27:44;96773.97;;;8.06;100.00
12759;BME280;20944;47.048;15.390;2024-03-02T03:30:13;96769.69;;;8.03;100.00
12759;BME280;20944;47.048;15.390;2024-03-02T03:32:43;96764.44;;;8.05;100.00
12759;BME280;20944;47.048;15.390;2024-03-02T03:35:11;96693.66;;;7.61;100.00
12759;BME280;20944;47.048;15.390;2024-03-02T03:37:41;96732.09;;;7.82;100.00
12759;BME280;20944;47.048;15.390;2024-03-02T03:40:10;96736.47;;;7.82;100.00
12759;BME280;20944;47.048;15.390;2024-03-02T03:42:39;96726.78;;;7.85;100.00
12759;BME280;20944;47.048;15.390;2024-03-02T03:45:07;96746.19;;;8.05;100.00
12759;BME280;20944;47.048;15.390;2024-03-02T03:47:36;96759.16;;;8.06;100.00
12759;BME280;20944;47.048;15.390;2024-03-02T03:50:06;96773.78;;;8.10;100.00
12759;BME280;20944;47.048;15.390;2024-03-02T03:52:35;96681.69;;;7.54;100.00
12759;BME280;20944;47.048;15.390;2024-03-02T03:55:04;96709.25;;;7.63;100.00
12759;BME280;20944;47.048;15.390;2024-03-02T03:57:33;96771.94;;;8.14;100.00
12759;BME280;20944;47.048;15.390;2024-03-02T04:00:01;96764.31;;;8.08;100.00
12759;BME280;20944;47.048;15.390;2024-03-02T04:02:30;96756.50;;;8.08;100.00
12759;BME280;20944;47.048;15.390;2024-03-02T04:04:58;96771.03;;;8.15;100.00
12759;BME280;20944;47.048;15.390;2024-03-02T04:07:28;96770.06;;;8.19;100.00
12759;BME280;20944;47.048;15.390;2024-03-02T04:09:56;96771.91;;;8.16;100.00
12759;BME280;20944;47.048;15.390;2024-03-02T04:12:24;96771.09;;;8.14;100.00
12759;BME280;20944;47.048;15.390;2024-03-02T04:14:53;96758.13;;;8.10;100.00
12759;BME280;20944;47.048;15.390;2024-03-02T04:17:21;96776.22;;;8.17;100.00
12759;BME280;20944;47.048;15.390;2024-03-02T04:19:49;96771.16;;;8.12;100.00
12759;BME280;20944;47.048;15.390;2024-03-02T04:22:17;96769.41;;;8.13;100.00
12759;BME280;20944;47.048;15.390;2024-03-02T04:24:52;96755.13;;;7.96;100.00
12759;BME280;20944;47.048;15.390;2024-03-02T04:27:21;96627.91;;;7.25;100.00
12759;BME280;20944;47.048;15.390;2024-03-02T04:29:49;96773.84;;;8.09;100.00
12759;BME280;20944;47.048;15.390;2024-03-02T04:32:18;96774.69;;;8.09;100.00
12759;BME280;20944;47.048;15.390;2024-03-02T04:34:46;96667.31;;;7.42;100.00
12759;BME280;20944;47.048;15.390;2024-03-02T04:37:15;96757.03;;;7.91;100.00
12759;BME280;20944;47.048;15.390;2024-03-02T04:39:43;96810.50;;;8.04;100.00
12759;BME280;20944;47.048;15.390;2024-03-02T04:42:13;96722.22;;;7.64;100.00
12759;BME280;20944;47.048;15.390;2024-03-02T04:44:41;96748.72;;;7.78;100.00
12759;BME280;20944;47.048;15.390;2024-03-02T04:47:09;96798.28;;;8.06;100.00
12759;BME280;20944;47.048;15.390;2024-03-02T04:49:37;96804.59;;;7.99;100.00
12759;BME280;20944;47.048;15.390;2024-03-02T04:52:06;96805.53;;;7.97;100.00
12759;BME280;20944;47.048;15.390;2024-03-02T04:54:34;96802.06;;;7.96;100.00
12759;BME280;20944;47.048;15.390;2024-03-02T04:57:24;96808.81;;;7.75;100.00
12759;BME280;20944;47.048;15.390;2024-03-02T04:59:53;96811.47;;;7.74;100.00
12759;BME280;20944;47.048;15.390;2024-03-02T05:02:21;96811.91;;;7.58;100.00
12759;BME280;20944;47.048;15.390;2024-03-02T05:04:49;96777.94;;;7.32;100.00
12759;BME280;20944;47.048;15.390;2024-03-02T05:07:18;96821.44;;;7.60;100.00
12759;BME280;20944;47.048;15.390;2024-03-02T05:09:46;96817.25;;;7.54;100.00
12759;BME280;20944;47.048;15.390;2024-03-02T05:12:15;96825.00;;;7.57;100.00
12759;BME280;20944;47.048;15.390;2024-03-02T05:15:10;96798.31;;;7.49;100.00
12759;BME280;20944;47.048;15.390;2024-03-02T05:17:39;96779.72;;;7.30;100.00
12759;BME280;20944;47.048;15.390;2024-03-02T05:20:08;96820.03;;;7.77;100.00
12759;BME280;20944;47.048;15.390;2024-03-02T05:22:37;96819.09;;;7.80;100.00
12759;BME280;20944;47.048;15.390;2024-03-02T05:25:07;96818.25;;;7.79;100.00
12759;BME280;20944;47.048;15.390;2024-03-02T05:27:36;96820.75;;;7.82;100.00
12759;BME280;20944;47.048;15.390;2024-03-02T05:30:06;96814.88;;;7.76;100.00
12759;BME280;20944;47.048;15.390;2024-03-02T05:32:35;96807.97;;;7.75;100.00
12759;BME280;20944;47.048;15.390;2024-03-02T05:35:05;96757.72;;;7.40;100.00
12759;BME280;20944;47.048;15.390;2024-03-02T05:37:33;96821.38;;;7.91;100.00
12759;BME280;20944;47.048;15.390;2024-03-02T05:40:02;96807.97;;;7.75;100.00
12759;BME280;20944;47.048;15.390;2024-03-02T05:42:30;96783.94;;;7.64;100.00
12759;BME280;20944;47.048;15.390;2024-03-02T05:44:58;96826.63;;;7.89;100.00
12759;BME280;20944;47.048;15.390;2024-03-02T05:47:26;96829.97;;;7.94;100.00
12759;BME280;20944;47.048;15.390;2024-03-02T05:49:56;96829.97;;;7.94;100.00
12759;BME280;20944;47.048;15.390;2024-03-02T05:52:25;96827.38;;;7.94;100.00
12759;BME280;20944;47.048;15.390;2024-03-02T05:54:53;96824.75;;;7.94;100.00
12759;BME280;20944;47.048;15.390;2024-03-02T05:57:22;96824.66;;;7.97;100.00
12759;BME280;20944;47.048;15.390;2024-03-02T06:00:07;96810.13;;;7.89;100.00
12759;BME280;20944;47.048;15.390;2024-03-02T06:02:35;96829.00;;;7.97;100.00
12759;BME280;20944;47.048;15.390;2024-03-02T06:05:07;96801.78;;;7.77;100.00
12759;BME280;20944;47.048;15.390;2024-03-02T06:07:35;96838.53;;;7.99;100.00
12759;BME280;20944;47.048;15.390;2024-03-02T06:10:04;96789.97;;;7.66;100.00
12759;BME280;20944;47.048;15.390;2024-03-02T06:12:38;96841.91;;;8.01;100.00
12759;BME280;20944;47.048;15.390;2024-03-02T06:15:07;96825.84;;;7.87;100.00
12759;BME280;20944;47.048;15.390;2024-03-02T06:17:35;96823.50;;;7.78;100.00
12759;BME280;20944;47.048;15.390;2024-03-02T06:20:05;96846.59;;;7.90;100.00
12759;BME280;20944;47.048;15.390;2024-03-02T06:22:36;96847.50;;;7.89;100.00
12759;BME280;20944;47.048;15.390;2024-03-02T06:25:05;96825.38;;;7.73;100.00
12759;BME280;20944;47.048;15.390;2024-03-02T06:27:33;96852.72;;;7.89;100.00
12759;BME280;20944;47.048;15.390;2024-03-02T06:30:02;96840.47;;;7.91;100.00
12759;BME280;20944;47.048;15.390;2024-03-02T06:32:31;96861.81;;;8.05;100.00
12759;BME280;20944;47.048;15.390;2024-03-02T06:34:59;96843.75;;;7.98;100.00
12759;BME280;20944;47.048;15.390;2024-03-02T06:37:28;96848.94;;;7.99;100.00
12759;BME280;20944;47.048;15.390;2024-03-02T06:39:57;96861.63;;;8.11;100.00
12759;BME280;20944;47.048;15.390;2024-03-02T06:42:26;96855.19;;;8.22;100.00
12759;BME280;20944;47.048;15.390;2024-03-02T06:44:54;96865.63;;;8.22;100.00
12759;BME280;20944;47.048;15.390;2024-03-02T06:47:22;96865.59;;;8.23;100.00
12759;BME280;20944;47.048;15.390;2024-03-02T06:49:51;96813.94;;;8.06;100.00
12759;BME280;20944;47.048;15.390;2024-03-02T06:52:19;96853.91;;;8.35;100.00
12759;BME280;20944;47.048;15.390;2024-03-02T06:54:50;96840.97;;;8.32;100.00
12759;BME280;20944;47.048;15.390;2024-03-02T06:57:20;96860.53;;;8.47;100.00
12759;BME280;20944;47.048;15.390;2024-03-02T06:59:49;96855.78;;;8.59;100.00
12759;BME280;20944;47.048;15.390;2024-03-02T07:02:20;96847.69;;;8.67;100.00
12759;BME280;20944;47.048;15.390;2024-03-02T07:04:49;96825.16;;;8.38;100.00
12759;BME280;20944;47.048;15.390;2024-03-02T07:07:18;96816.22;;;8.45;100.00
12759;BME280;20944;47.048;15.390;2024-03-02T07:09:46;96811.75;;;8.49;100.00
12759;BME280;20944;47.048;15.390;2024-03-02T07:12:15;96782.13;;;8.22;100.00
12759;BME280;20944;47.048;15.390;2024-03-02T07:14:45;96819.03;;;8.65;100.00
12759;BME280;20944;47.048;15.390;2024-03-02T07:17:38;96841.81;;;8.87;100.00
12759;BME280;20944;47.048;15.390;2024-03-02T07:20:06;96826.31;;;8.82;100.00
12759;BME280;20944;47.048;15.390;2024-03-02T07:22:35;96738.22;;;8.34;100.00
12759;BME280;20944;47.048;15.390;2024-03-02T07:25:08;96839.22;;;9.12;100.00
12759;BME280;20944;47.048;15.390;2024-03-02T07:27:56;96841.13;;;9.32;100.00
12759;BME280;20944;47.048;15.390;2024-03-02T07:30:26;96829.41;;;9.42;100.00
12759;BME280;20944;47.048;15.390;2024-03-02T07:32:58;96780.81;;;9.36;100.00
12759;BME280;20944;47.048;15.390;2024-03-02T07:35:26;96804.75;;;9.72;100.00
12759;BME280;20944;47.048;15.390;2024-03-02T07:37:55;96817.72;;;9.76;100.00
12759;BME280;20944;47.048;15.390;2024-03-02T07:40:24;96805.56;;;9.51;100.00
12759;BME280;20944;47.048;15.390;2024-03-02T07:42:53;96776.91;;;9.48;100.00
12759;BME280;20944;47.048;15.390;2024-03-02T07:45:21;96832.53;;;9.98;100.00
12759;BME280;20944;47.048;15.390;2024-03-02T07:47:51;96814.19;;;10.00;100.00
12759;BME280;20944;47.048;15.390;2024-03-02T07:50:20;96835.78;;;10.29;100.00
12759;BME280;20944;47.048;15.390;2024-03-02T07:52:49;96838.69;;;10.43;100.00
12759;BME280;20944;47.048;15.390;2024-03-02T07:55:17;96837.84;;;10.42;100.00
12759;BME280;20944;47.048;15.390;2024-03-02T07:57:45;96837.91;;;10.41;100.00
12759;BME280;20944;47.048;15.390;2024-03-02T08:00:14;96841.72;;;10.54;100.00
12759;BME280;20944;47.048;15.390;2024-03-02T08:02:42;96832.66;;;10.63;100.00
12759;BME280;20944;47.048;15.390;2024-03-02T08:05:12;96810.56;;;10.68;100.00
12759;BME280;20944;47.048;15.390;2024-03-02T08:07:40;96752.59;;;10.56;100.00
12759;BME280;20944;47.048;15.390;2024-03-02T08:10:09;96753.66;;;10.72;100.00
12759;BME280;20944;47.048;15.390;2024-03-02T08:12:37;96759.13;;;10.88;100.00
12759;BME280;20944;47.048;15.390;2024-03-02T08:15:06;96803.53;;;11.31;100.00
12759;BME280;20944;47.048;15.390;2024-03-02T08:17:34;96784.50;;;11.26;100.00
12759;BME280;20944;47.048;15.390;2024-03-02T08:22:36;96825.44;;;11.49;100.00
12759;BME280;20944;47.048;15.390;2024-03-02T08:25:05;96811.19;;;11.55;100.00
12759;BME280;20944;47.048;15.390;2024-03-02T08:27:33;96828.53;;;11.78;100.00
12759;BME280;20944;47.048;15.390;2024-03-02T08:30:02;96790.59;;;11.66;100.00
12759;BME280;20944;47.048;15.390;2024-03-02T08:32:34;96802.91;;;11.84;100.00
12759;BME280;20944;47.048;15.390;2024-03-02T08:35:02;96826.44;;;12.05;100.00
12759;BME280;20944;47.048;15.390;2024-03-02T08:37:31;96828.94;;;12.08;100.00
12759;BME280;20944;47.048;15.390;2024-03-02T08:40:01;96812.63;;;12.01;100.00
12759;BME280;20944;47.048;15.390;2024-03-02T08:42:30;96799.34;;;11.85;100.00
12759;BME280;20944;47.048;15.390;2024-03-02T08:44:59;96823.34;;;11.97;100.00
12759;BME280;20944;47.048;15.390;2024-03-02T08:47:28;96794.31;;;11.81;100.00
12759;BME280;20944;47.048;15.390;2024-03-02T08:49:56;96753.19;;;11.61;100.00
12759;BME280;20944;47.048;15.390;2024-03-02T08:52:27;96797.84;;;11.99;100.00
12759;BME280;20944;47.048;15.390;2024-03-02T08:54:55;96800.81;;;12.10;100.00
12759;BME280;20944;47.048;15.390;2024-03-02T08:57:25;96814.09;;;12.26;100.00
12759;BME280;20944;47.048;15.390;2024-03-02T08:59:54;96816.66;;;12.27;100.00
12759;BME280;20944;47.048;15.390;2024-03-02T09:02:22;96815.84;;;12.25;100.00
12759;BME280;20944;47.048;15.390;2024-03-02T09:04:50;96817.06;;;12.18;100.00
12759;BME280;20944;47.048;15.390;2024-03-02T09:07:19;96672.88;;;11.40;100.00
12759;BME280;20944;47.048;15.390;2024-03-02T09:09:47;96807.91;;;12.27;100.00
12759;BME280;20944;47.048;15.390;2024-03-02T09:12:15;96818.53;;;12.42;100.00
12759;BME280;20944;47.048;15.390;2024-03-02T09:14:46;96711.66;;;11.90;100.00
12759;BME280;20944;47.048;15.390;2024-03-02T09:17:14;96815.09;;;12.59;100.00
12759;BME280;20944;47.048;15.390;2024-03-02T09:19:42;96815.78;;;12.63;100.00
12759;BME280;20944;47.048;15.390;2024-03-02T09:22:11;96760.09;;;12.20;100.00
12759;BME280;20944;47.048;15.390;2024-03-02T09:24:40;96817.47;;;12.47;100.00
12759;BME280;20944;47.048;15.390;2024-03-02T09:27:08;96808.72;;;12.46;100.00
12759;BME280;20944;47.048;15.390;2024-03-02T09:29:36;96799.28;;;12.42;100.00
12759;BME280;20944;47.048;15.390;2024-03-02T09:32:08;96750.16;;;12.08;100.00
12759;BME280;20944;47.048;15.390;2024-03-02T09:34:37;96788.38;;;12.32;100.00
12759;BME280;20944;47.048;15.390;2024-03-02T09:37:05;96812.59;;;12.39;100.00
12759;BME280;20944;47.048;15.390;2024-03-02T09:39:33;96838.19;;;12.53;100.00
12759;BME280;20944;47.048;15.390;2024-03-02T09:42:03;96814.69;;;12.67;100.00
12759;BME280;20944;47.048;15.390;2024-03-02T09:44:33;96826.69;;;12.73;100.00
12759;BME280;20944;47.048;15.390;2024-03-02T09:47:01;96823.06;;;12.75;100.00
12759;BME280;20944;47.048;15.390;2024-03-02T09:49:31;96804.66;;;12.58;100.00
12759;BME280;20944;47.048;15.390;2024-03-02T09:51:59;96826.22;;;12.64;100.00
12759;BME280;20944;47.048;15.390;2024-03-02T09:54:28;96825.59;;;12.59;100.00
12759;BME280;20944;47.048;15.390;2024-03-02T09:56:56;96822.09;;;12.41;100.00
12759;BME280;20944;47.048;15.390;2024-03-02T09:59:25;96658.28;;;11.34;100.00
12759;BME280;20944;47.048;15.390;2024-03-02T10:01:58;96827.72;;;12.34;100.00
12759;BME280;20944;47.048;15.390;2024-03-02T10:04:28;96784.78;;;12.16;100.00
12759;BME280;20944;47.048;15.390;2024-03-02T10:07:12;96825.91;;;12.53;100.00
12759;BME280;20944;47.048;15.390;2024-03-02T10:09:42;96783.25;;;12.29;100.00
12759;BME280;20944;47.048;15.390;2024-03-02T10:12:14;96813.00;;;12.30;100.00
12759;BME280;20944;47.048;15.390;2024-03-02T10:14:42;96820.47;;;12.39;100.00
12759;BME280;20944;47.048;15.390;2024-03-02T10:17:12;96780.59;;;12.12;100.00
12759;BME280;20944;47.048;15.390;2024-03-02T10:19:40;96831.53;;;12.63;100.00
12759;BME280;20944;47.048;15.390;2024-03-02T10:22:09;96813.09;;;12.64;100.00
12759;BME280;20944;47.048;15.390;2024-03-02T10:24:41;96824.78;;;12.76;100.00
12759;BME280;20944;47.048;15.390;2024-03-02T10:27:16;96822.97;;;12.94;100.00
12759;BME280;20944;47.048;15.390;2024-03-02T10:29:46;96774.66;;;12.79;100.00
12759;BME280;20944;47.048;15.390;2024-03-02T10:32:15;96821.56;;;13.23;100.00
12759;BME280;20944;47.048;15.390;2024-03-02T10:34:45;96823.47;;;13.37;100.00
12759;BME280;20944;47.048;15.390;2024-03-02T10:37:15;96818.66;;;13.45;100.00
12759;BME280;20944;47.048;15.390;2024-03-02T10:39:46;96791.13;;;13.35;100.00
12759;BME280;20944;47.048;15.390;2024-03-02T10:42:15;96812.69;;;13.59;100.00
12759;BME280;20944;47.048;15.390;2024-03-02T10:44:44;96773.66;;;13.49;100.00
12759;BME280;20944;47.048;15.390;2024-03-02T10:47:14;96723.38;;;13.38;100.00
12759;BME280;20944;47.048;15.390;2024-03-02T10:49:44;96799.28;;;13.95;100.00
12759;BME280;20944;47.048;15.390;2024-03-02T10:52:14;96795.81;;;13.94;97.70
12759;BME280;20944;47.048;15.390;2024-03-02T10:54:42;96798.53;;;13.93;99.36
12759;BME280;20944;47.048;15.390;2024-03-02T10:57:14;96774.97;;;13.74;94.93
12759;BME280;20944;47.048;15.390;2024-03-02T10:59:52;96792.00;;;13.84;95.25
12759;BME280;20944;47.048;15.390;2024-03-02T11:02:21;96785.59;;;13.72;92.92
12759;BME280;20944;47.048;15.390;2024-03-02T11:04:50;96791.81;;;13.71;96.26
12759;BME280;20944;47.048;15.390;2024-03-02T11:07:23;96774.03;;;13.75;96.59
12759;BME280;20944;47.048;15.390;2024-03-02T11:09:54;96761.06;;;13.88;98.04
12759;BME280;20944;47.048;15.390;2024-03-02T11:12:29;96776.47;;;13.95;90.53
12759;BME280;20944;47.048;15.390;2024-03-02T11:14:58;96780.63;;;13.84;90.99
12759;BME280;20944;47.048;15.390;2024-03-02T11:17:27;96763.31;;;13.46;92.44
12759;BME280;20944;47.048;15.390;2024-03-02T11:19:57;96773.66;;;13.49;96.38
12759;BME280;20944;47.048;15.390;2024-03-02T11:22:26;96744.06;;;13.46;99.87
12759;BME280;20944;47.048;15.390;2024-03-02T11:24:54;96770.16;;;13.82;98.08
12759;BME280;20944;47.048;15.390;2024-03-02T11:28:02;96779.69;;;13.85;96.87
12759;BME280;20944;47.048;15.390;2024-03-02T11:30:49;96755.13;;;13.84;94.03
12759;BME280;20944;47.048;15.390;2024-03-02T11:33:26;96755.81;;;13.72;95.31
12759;BME280;20944;47.048;15.390;2024-03-02T11:35:57;96744.81;;;13.64;98.59
12759;BME280;20944;47.048;15.390;2024-03-02T11:38:32;96724.22;;;13.72;99.15
12759;BME280;20944;47.048;15.390;2024-03-02T11:41:01;96731.25;;;13.87;97.40
12759;BME280;20944;47.048;15.390;2024-03-02T11:43:32;96747.66;;;14.08;94.10
12759;BME280;20944;47.048;15.390;2024-03-02T11:46:01;96731.50;;;14.14;95.48
12759;BME280;20944;47.048;15.390;2024-03-02T11:48:35;96722.88;;;14.26;93.52
12759;BME280;20944;47.048;15.390;2024-03-02T11:51:04;96741.22;;;14.60;91.60
12759;BME280;20944;47.048;15.390;2024-03-02T11:53:33;96746.34;;;14.77;92.04
12759;BME280;20944;47.048;15.390;2024-03-02T11:56:06;96730.09;;;14.84;88.90
12759;BME280;20944;47.048;15.390;2024-03-02T11:58:39;96744.88;;;14.87;85.90
12759;BME280;20944;47.048;15.390;2024-03-02T12:01:08;96747.59;;;14.55;86.21
12759;BME280;20944;47.048;15.390;2024-03-02T12:03:37;96744.84;;;14.27;92.76
12759;BME280;20944;47.048;15.390;2024-03-02T12:06:07;96724.69;;;14.10;94.24
12759;BME280;20944;47.048;15.390;2024-03-02T12:08:36;96724.75;;;14.24;92.77
12759;BME280;20944;47.048;15.390;2024-03-02T12:11:05;96734.50;;;14.38;88.00
12759;BME280;20944;47.048;15.390;2024-03-02T12:13:33;96707.06;;;14.26;92.78
12759;BME280;20944;47.048;15.390;2024-03-02T12:16:04;96722.56;;;14.63;89.10
12759;BME280;20944;47.048;15.390;2024-03-02T12:18:32;96706.78;;;14.77;88.12
12759;BME280;20944;47.048;15.390;2024-03-02T12:21:01;96713.63;;;15.09;88.04
12759;BME280;20944;47.048;15.390;2024-03-02T12:23:30;96716.44;;;15.21;83.37
12759;BME280;20944;47.048;15.390;2024-03-02T12:25:59;96707.31;;;15.26;84.93
12759;BME280;20944;47.048;15.390;2024-03-02T12:28:27;96707.50;;;15.37;83.52
12759;BME280;20944;47.048;15.390;2024-03-02T12:30:58;96679.78;;;15.30;82.13
12759;BME280;20944;47.048;15.390;2024-03-02T12:33:28;96711.19;;;15.35;81.85
12759;BME280;20944;47.048;15.390;2024-03-02T12:35:57;96712.22;;;15.18;82.08
12759;BME280;20944;47.048;15.390;2024-03-02T12:38:26;96704.41;;;15.17;84.20
12759;BME280;20944;47.048;15.390;2024-03-02T12:40:56;96681.56;;;15.01;84.80
12759;BME280;20944;47.048;15.390;2024-03-02T12:43:24;96708.16;;;15.13;84.55
12759;BME280;20944;47.048;15.390;2024-03-02T12:45:53;96702.19;;;14.95;86.35
12759;BME280;20944;47.048;15.390;2024-03-02T12:48:23;96706.16;;;14.88;89.45
12759;BME280;20944;47.048;15.390;2024-03-02T12:50:52;96698.91;;;14.91;89.24
12759;BME280;20944;47.048;15.390;2024-03-02T12:53:21;96698.63;;;14.96;87.14
12759;BME280;20944;47.048;15.390;2024-03-02T12:55:51;96702.66;;;14.87;89.45
12759;BME280;20944;47.048;15.390;2024-03-02T12:58:20;96701.91;;;14.71;92.08
12759;BME280;20944;47.048;15.390;2024-03-02T13:00:49;96635.66;;;14.31;88.70
12759;BME280;20944;47.048;15.390;2024-03-02T13:03:18;96695.94;;;14.67;88.83